Portada
METAR-TAF:

METAR-TAF

Aeropuertos :

Chabahar, Irán

latitud: 25-25N, longitud: 060-45E, altitud: 6 m

Observación

El informe se hizo hace 47 minutos, a las 11:00 UTC
Viento 10 kt del sur-suroeste
Temperatura 28°C
Humedad 58%
Presión 1010 hPa
Visibilidad: 5000 m
Nubes dispersas a una altura de 4000 ft
Cielo nuboso a una altura de 10000 ft
calima

METAR: OIZC 271100Z 21010KT 5000 HZ SCT040 BKN100 28/19 Q1009 A2982

Hora: 15:17 (11:47 UTC)


TAF: falta

Observaciones y pronósticos meteorológicos de más de 4000 aeropuertos (mensajes METAR y TAF).

Los puntos amarillos y rojos representan las estaciones disponibles.

Ponga el ratón en el punto deseado para ver el nombre de la estación.

Haga clic para ver las observaciones y los pronósticos meteorológicos.

Para cambiar el mapa : haga clic en los botones verdes con una cruz de color negro para hacer un zoom, en el botón verde con un guión para alejar o en las flechas verdes para mapas adyacentes.


METAR-TAF: